sensor_id;sensor_type;location;lat;lon;timestamp;temperature;humidity
72772;SHT30;60894;42.544;1.516;2023-02-28T00:01:19;-0.35;50.34
72772;SHT30;60894;42.544;1.516;2023-02-28T00:03:46;-0.28;50.81
72772;SHT30;60894;42.544;1.516;2023-02-28T00:06:13;-0.12;49.81
72772;SHT30;60894;42.544;1.516;2023-02-28T00:08:41;-0.19;49.96
72772;SHT30;60894;42.544;1.516;2023-02-28T00:11:11;-0.32;50.28
72772;SHT30;60894;42.544;1.516;2023-02-28T00:13:42;-0.54;51.08
72772;SHT30;60894;42.544;1.516;2023-02-28T00:16:13;-0.46;51.71
72772;SHT30;60894;42.544;1.516;2023-02-28T00:18:41;-0.46;51.99
72772;SHT30;60894;42.544;1.516;2023-02-28T00:21:08;-0.33;52.28
72772;SHT30;60894;42.544;1.516;2023-02-28T00:23:36;-0.33;52.57
72772;SHT30;60894;42.544;1.516;2023-02-28T00:26:03;-0.39;52.66
72772;SHT30;60894;42.544;1.516;2023-02-28T00:28:30;-0.35;53.19
72772;SHT30;60894;42.544;1.516;2023-02-28T00:30:59;-0.48;54.63
72772;SHT30;60894;42.544;1.516;2023-02-28T00:33:26;-0.46;53.94
72772;SHT30;60894;42.544;1.516;2023-02-28T00:36:02;-0.49;54.18
72772;SHT30;60894;42.544;1.516;2023-02-28T00:38:30;-0.40;53.51
72772;SHT30;60894;42.544;1.516;2023-02-28T00:40:57;-0.43;54.04
72772;SHT30;60894;42.544;1.516;2023-02-28T00:43:30;-0.35;54.50
72772;SHT30;60894;42.544;1.516;2023-02-28T00:45:58;-0.40;54.98
72772;SHT30;60894;42.544;1.516;2023-02-28T00:48:25;-0.53;53.87
72772;SHT30;60894;42.544;1.516;2023-02-28T00:50:52;-0.54;54.68
72772;SHT30;60894;42.544;1.516;2023-02-28T00:53:19;-0.50;54.29
72772;SHT30;60894;42.544;1.516;2023-02-28T00:55:46;-0.60;54.73
72772;SHT30;60894;42.544;1.516;2023-02-28T00:58:13;-0.52;55.18
72772;SHT30;60894;42.544;1.516;2023-02-28T01:00:40;-0.49;54.49
72772;SHT30;60894;42.544;1.516;2023-02-28T01:03:08;-0.42;54.64
72772;SHT30;60894;42.544;1.516;2023-02-28T01:05:35;-0.40;54.67
72772;SHT30;60894;42.544;1.516;2023-02-28T01:08:01;-0.35;55.78
72772;SHT30;60894;42.544;1.516;2023-02-28T01:10:28;-0.37;56.79
72772;SHT30;60894;42.544;1.516;2023-02-28T01:12:57;-0.37;57.04
72772;SHT30;60894;42.544;1.516;2023-02-28T01:15:24;-0.37;57.06
72772;SHT30;60894;42.544;1.516;2023-02-28T01:17:51;-0.62;56.70
72772;SHT30;60894;42.544;1.516;2023-02-28T01:20:19;-0.60;56.09
72772;SHT30;60894;42.544;1.516;2023-02-28T01:22:46;-0.56;57.66
72772;SHT30;60894;42.544;1.516;2023-02-28T01:25:13;-0.57;58.91
72772;SHT30;60894;42.544;1.516;2023-02-28T01:27:40;-0.63;58.92
72772;SHT30;60894;42.544;1.516;2023-02-28T01:30:08;-0.66;59.32
72772;SHT30;60894;42.544;1.516;2023-02-28T01:32:36;-0.72;60.00
72772;SHT30;60894;42.544;1.516;2023-02-28T01:35:03;-0.74;60.04
72772;SHT30;60894;42.544;1.516;2023-02-28T01:37:32;-0.70;59.51
72772;SHT30;60894;42.544;1.516;2023-02-28T01:39:58;-0.59;59.43
72772;SHT30;60894;42.544;1.516;2023-02-28T01:42:25;-0.56;59.21
72772;SHT30;60894;42.544;1.516;2023-02-28T01:45:02;-0.43;58.72
72772;SHT30;60894;42.544;1.516;2023-02-28T01:47:32;-0.39;58.85
72772;SHT30;60894;42.544;1.516;2023-02-28T01:50:01;-0.39;58.73
72772;SHT30;60894;42.544;1.516;2023-02-28T01:52:30;-0.36;57.56
72772;SHT30;60894;42.544;1.516;2023-02-28T01:54:59;-0.30;56.30
72772;SHT30;60894;42.544;1.516;2023-02-28T01:57:30;-0.33;55.74
72772;SHT30;60894;42.544;1.516;2023-02-28T02:00:06;-0.33;56.23
72772;SHT30;60894;42.544;1.516;2023-02-28T02:02:35;-0.36;55.91
72772;SHT30;60894;42.544;1.516;2023-02-28T02:05:04;-0.53;55.97
72772;SHT30;60894;42.544;1.516;2023-02-28T02:07:33;-0.45;56.26
72772;SHT30;60894;42.544;1.516;2023-02-28T02:10:05;-0.46;56.18
72772;SHT30;60894;42.544;1.516;2023-02-28T02:12:43;-0.42;56.09
72772;SHT30;60894;42.544;1.516;2023-02-28T02:15:15;-0.53;55.99
72772;SHT30;60894;42.544;1.516;2023-02-28T02:17:45;-0.45;56.48
72772;SHT30;60894;42.544;1.516;2023-02-28T02:26:26;-0.56;56.87
72772;SHT30;60894;42.544;1.516;2023-02-28T02:35:15;-0.56;56.95
72772;SHT30;60894;42.544;1.516;2023-02-28T02:37:49;-0.53;57.07
72772;SHT30;60894;42.544;1.516;2023-02-28T02:40:19;-0.42;56.84
72772;SHT30;60894;42.544;1.516;2023-02-28T02:42:51;-0.50;57.16
72772;SHT30;60894;42.544;1.516;2023-02-28T02:45:25;-0.56;57.58
72772;SHT30;60894;42.544;1.516;2023-02-28T02:47:53;-0.49;57.15
72772;SHT30;60894;42.544;1.516;2023-02-28T02:50:27;-0.48;57.20
72772;SHT30;60894;42.544;1.516;2023-02-28T02:52:58;-0.35;57.36
72772;SHT30;60894;42.544;1.516;2023-02-28T02:55:28;-0.42;57.47
72772;SHT30;60894;42.544;1.516;2023-02-28T02:57:58;-0.36;57.75
72772;SHT30;60894;42.544;1.516;2023-02-28T03:00:30;-0.30;56.96
72772;SHT30;60894;42.544;1.516;2023-02-28T03:03:01;-0.33;56.58
72772;SHT30;60894;42.544;1.516;2023-02-28T03:05:33;-0.40;57.10
72772;SHT30;60894;42.544;1.516;2023-02-28T03:08:03;-0.50;57.63
72772;SHT30;60894;42.544;1.516;2023-02-28T03:10:36;-0.45;57.79
72772;SHT30;60894;42.544;1.516;2023-02-28T03:13:13;-0.42;57.94
72772;SHT30;60894;42.544;1.516;2023-02-28T03:15:52;-0.37;58.00
72772;SHT30;60894;42.544;1.516;2023-02-28T03:18:25;-0.42;58.39
72772;SHT30;60894;42.544;1.516;2023-02-28T03:21:01;-0.42;58.15
72772;SHT30;60894;42.544;1.516;2023-02-28T03:23:35;-0.39;58.31
72772;SHT30;60894;42.544;1.516;2023-02-28T03:26:06;-0.37;57.95
72772;SHT30;60894;42.544;1.516;2023-02-28T03:28:41;-0.28;57.23
72772;SHT30;60894;42.544;1.516;2023-02-28T03:31:15;-0.45;57.77
72772;SHT30;60894;42.544;1.516;2023-02-28T03:33:46;-0.35;57.23
72772;SHT30;60894;42.544;1.516;2023-02-28T03:36:24;-0.35;56.71
72772;SHT30;60894;42.544;1.516;2023-02-28T03:38:56;-0.42;57.18
72772;SHT30;60894;42.544;1.516;2023-02-28T03:41:29;-0.43;57.18
72772;SHT30;60894;42.544;1.516;2023-02-28T03:43:59;-0.32;57.30
72772;SHT30;60894;42.544;1.516;2023-02-28T03:46:31;-0.45;57.02
72772;SHT30;60894;42.544;1.516;2023-02-28T03:49:02;-0.43;57.34
72772;SHT30;60894;42.544;1.516;2023-02-28T03:51:32;-0.42;57.87
72772;SHT30;60894;42.544;1.516;2023-02-28T03:54:05;-0.45;57.86
72772;SHT30;60894;42.544;1.516;2023-02-28T03:56:35;-0.40;57.38
72772;SHT30;60894;42.544;1.516;2023-02-28T03:59:07;-0.50;57.14
72772;SHT30;60894;42.544;1.516;2023-02-28T04:01:38;-0.54;57.39
72772;SHT30;60894;42.544;1.516;2023-02-28T04:04:07;-0.53;57.66
72772;SHT30;60894;42.544;1.516;2023-02-28T04:06:35;-0.52;58.06
72772;SHT30;60894;42.544;1.516;2023-02-28T04:09:03;-0.59;58.02
72772;SHT30;60894;42.544;1.516;2023-02-28T04:11:33;-0.45;58.06
72772;SHT30;60894;42.544;1.516;2023-02-28T04:14:01;-0.42;58.15
72772;SHT30;60894;42.544;1.516;2023-02-28T04:16:28;-0.36;57.77
72772;SHT30;60894;42.544;1.516;2023-02-28T04:18:55;-0.40;57.70
72772;SHT30;60894;42.544;1.516;2023-02-28T04:21:27;-0.32;57.64
72772;SHT30;60894;42.544;1.516;2023-02-28T04:23:56;-0.37;57.24
72772;SHT30;60894;42.544;1.516;2023-02-28T04:26:28;-0.42;57.50
72772;SHT30;60894;42.544;1.516;2023-02-28T04:28:56;-0.35;57.51
72772;SHT30;60894;42.544;1.516;2023-02-28T04:31:23;-0.36;56.99
72772;SHT30;60894;42.544;1.516;2023-02-28T04:33:50;-0.40;57.38
72772;SHT30;60894;42.544;1.516;2023-02-28T04:36:17;-0.43;57.59
72772;SHT30;60894;42.544;1.516;2023-02-28T04:38:45;-0.53;57.66
72772;SHT30;60894;42.544;1.516;2023-02-28T04:41:13;-0.43;57.69
72772;SHT30;60894;42.544;1.516;2023-02-28T04:43:40;-0.37;56.99
72772;SHT30;60894;42.544;1.516;2023-02-28T04:46:07;-0.36;57.31
72772;SHT30;60894;42.544;1.516;2023-02-28T04:48:35;-0.49;57.09
72772;SHT30;60894;42.544;1.516;2023-02-28T04:51:04;-0.52;56.79
72772;SHT30;60894;42.544;1.516;2023-02-28T04:53:31;-0.50;56.87
72772;SHT30;60894;42.544;1.516;2023-02-28T04:55:58;-0.50;56.72
72772;SHT30;60894;42.544;1.516;2023-02-28T04:58:27;-0.59;56.58
72772;SHT30;60894;42.544;1.516;2023-02-28T05:01:01;-0.57;56.82
72772;SHT30;60894;42.544;1.516;2023-02-28T05:03:28;-0.60;57.11
72772;SHT30;60894;42.544;1.516;2023-02-28T05:05:55;-0.54;57.18
72772;SHT30;60894;42.544;1.516;2023-02-28T05:08:22;-0.43;57.29
72772;SHT30;60894;42.544;1.516;2023-02-28T05:10:49;-0.45;57.88
72772;SHT30;60894;42.544;1.516;2023-02-28T05:13:16;-0.48;57.60
72772;SHT30;60894;42.544;1.516;2023-02-28T05:15:44;-0.46;57.31
72772;SHT30;60894;42.544;1.516;2023-02-28T05:18:11;-0.46;56.99
72772;SHT30;60894;42.544;1.516;2023-02-28T05:20:38;-0.45;57.67
72772;SHT30;60894;42.544;1.516;2023-02-28T05:23:05;-0.40;57.49
72772;SHT30;60894;42.544;1.516;2023-02-28T05:25:31;-0.39;57.54
72772;SHT30;60894;42.544;1.516;2023-02-28T05:27:58;-0.32;57.97
72772;SHT30;60894;42.544;1.516;2023-02-28T05:30:25;-0.35;58.20
72772;SHT30;60894;42.544;1.516;2023-02-28T05:32:54;-0.36;57.99
72772;SHT30;60894;42.544;1.516;2023-02-28T05:35:21;-0.30;58.18
72772;SHT30;60894;42.544;1.516;2023-02-28T05:37:48;-0.29;58.00
72772;SHT30;60894;42.544;1.516;2023-02-28T05:40:15;-0.25;57.94
72772;SHT30;60894;42.544;1.516;2023-02-28T05:42:42;-0.33;58.50
72772;SHT30;60894;42.544;1.516;2023-02-28T05:45:09;-0.36;58.55
72772;SHT30;60894;42.544;1.516;2023-02-28T05:47:36;-0.30;56.85
72772;SHT30;60894;42.544;1.516;2023-02-28T05:50:06;-0.28;56.80
72772;SHT30;60894;42.544;1.516;2023-02-28T05:52:34;-0.23;56.40
72772;SHT30;60894;42.544;1.516;2023-02-28T05:55:01;-0.35;55.58
72772;SHT30;60894;42.544;1.516;2023-02-28T05:57:28;-0.39;55.28
72772;SHT30;60894;42.544;1.516;2023-02-28T05:59:55;-0.36;55.25
72772;SHT30;60894;42.544;1.516;2023-02-28T06:02:24;-0.33;54.63
72772;SHT30;60894;42.544;1.516;2023-02-28T06:04:51;-0.36;55.51
72772;SHT30;60894;42.544;1.516;2023-02-28T06:07:19;-0.28;55.12
72772;SHT30;60894;42.544;1.516;2023-02-28T06:09:47;-0.35;56.04
72772;SHT30;60894;42.544;1.516;2023-02-28T06:12:14;-0.36;56.00
72772;SHT30;60894;42.544;1.516;2023-02-28T06:14:41;-0.45;56.68
72772;SHT30;60894;42.544;1.516;2023-02-28T06:17:09;-0.52;59.68
72772;SHT30;60894;42.544;1.516;2023-02-28T06:19:36;-0.52;59.55
72772;SHT30;60894;42.544;1.516;2023-02-28T06:22:04;-0.52;59.15
72772;SHT30;60894;42.544;1.516;2023-02-28T06:24:32;-0.49;58.96
72772;SHT30;60894;42.544;1.516;2023-02-28T06:26:59;-0.52;58.44
72772;SHT30;60894;42.544;1.516;2023-02-28T06:29:30;-0.54;59.11
72772;SHT30;60894;42.544;1.516;2023-02-28T06:31:57;-0.63;59.47
72772;SHT30;60894;42.544;1.516;2023-02-28T06:34:24;-0.62;59.57
72772;SHT30;60894;42.544;1.516;2023-02-28T06:36:51;-0.69;60.04
72772;SHT30;60894;42.544;1.516;2023-02-28T06:39:19;-0.69;60.32
72772;SHT30;60894;42.544;1.516;2023-02-28T06:41:47;-0.77;60.38
72772;SHT30;60894;42.544;1.516;2023-02-28T06:44:15;-0.74;60.28
72772;SHT30;60894;42.544;1.516;2023-02-28T06:46:44;-0.63;60.66
72772;SHT30;60894;42.544;1.516;2023-02-28T06:49:11;-0.56;60.80
72772;SHT30;60894;42.544;1.516;2023-02-28T06:51:41;-0.53;60.05
72772;SHT30;60894;42.544;1.516;2023-02-28T06:54:10;-0.59;60.60
72772;SHT30;60894;42.544;1.516;2023-02-28T06:56:38;-0.63;60.87
72772;SHT30;60894;42.544;1.516;2023-02-28T06:59:06;-0.60;60.69
72772;SHT30;60894;42.544;1.516;2023-02-28T07:01:33;-0.62;60.24
72772;SHT30;60894;42.544;1.516;2023-02-28T07:04:01;-0.66;60.56
72772;SHT30;60894;42.544;1.516;2023-02-28T07:06:28;-0.72;60.73
72772;SHT30;60894;42.544;1.516;2023-02-28T07:08:55;-0.64;60.54
72772;SHT30;60894;42.544;1.516;2023-02-28T07:11:23;-0.67;60.20
72772;SHT30;60894;42.544;1.516;2023-02-28T07:13:51;-0.66;60.49
72772;SHT30;60894;42.544;1.516;2023-02-28T07:16:21;-0.56;60.11
72772;SHT30;60894;42.544;1.516;2023-02-28T07:18:49;-0.52;60.18
72772;SHT30;60894;42.544;1.516;2023-02-28T07:21:16;-0.52;59.35
72772;SHT30;60894;42.544;1.516;2023-02-28T07:23:43;-0.56;59.42
72772;SHT30;60894;42.544;1.516;2023-02-28T07:26:12;-0.54;59.67
72772;SHT30;60894;42.544;1.516;2023-02-28T07:28:40;-0.54;59.53
72772;SHT30;60894;42.544;1.516;2023-02-28T07:31:08;-0.49;59.37
72772;SHT30;60894;42.544;1.516;2023-02-28T07:33:40;-0.46;58.98
72772;SHT30;60894;42.544;1.516;2023-02-28T07:36:09;-0.46;59.05
72772;SHT30;60894;42.544;1.516;2023-02-28T07:38:39;-0.29;59.28
72772;SHT30;60894;42.544;1.516;2023-02-28T07:41:06;-0.19;59.05
72772;SHT30;60894;42.544;1.516;2023-02-28T07:43:34;-0.14;58.28
72772;SHT30;60894;42.544;1.516;2023-02-28T07:46:02;-0.11;58.02
72772;SHT30;60894;42.544;1.516;2023-02-28T07:48:29;-0.16;58.85
72772;SHT30;60894;42.544;1.516;2023-02-28T07:50:58;-0.08;58.71
72772;SHT30;60894;42.544;1.516;2023-02-28T07:53:25;0.08;58.49
72772;SHT30;60894;42.544;1.516;2023-02-28T07:55:54;0.08;59.33
72772;SHT30;60894;42.544;1.516;2023-02-28T07:58:22;0.09;60.11
72772;SHT30;60894;42.544;1.516;2023-02-28T08:00:49;0.19;59.54
72772;SHT30;60894;42.544;1.516;2023-02-28T08:03:16;0.26;58.19
72772;SHT30;60894;42.544;1.516;2023-02-28T08:05:43;0.37;58.09
72772;SHT30;60894;42.544;1.516;2023-02-28T08:08:12;0.40;57.88
72772;SHT30;60894;42.544;1.516;2023-02-28T08:10:39;0.40;57.70
72772;SHT30;60894;42.544;1.516;2023-02-28T08:13:06;0.50;57.56
72772;SHT30;60894;42.544;1.516;2023-02-28T08:15:33;0.57;57.19
72772;SHT30;60894;42.544;1.516;2023-02-28T08:18:00;0.73;56.30
72772;SHT30;60894;42.544;1.516;2023-02-28T08:20:27;0.73;56.57
72772;SHT30;60894;42.544;1.516;2023-02-28T08:22:54;0.76;56.92
72772;SHT30;60894;42.544;1.516;2023-02-28T08:25:22;0.78;57.53
72772;SHT30;60894;42.544;1.516;2023-02-28T08:27:50;0.71;56.38
72772;SHT30;60894;42.544;1.516;2023-02-28T08:30:17;0.85;55.48
72772;SHT30;60894;42.544;1.516;2023-02-28T08:32:44;0.83;55.51
72772;SHT30;60894;42.544;1.516;2023-02-28T08:35:11;0.95;55.12
72772;SHT30;60894;42.544;1.516;2023-02-28T08:37:38;1.18;53.46
72772;SHT30;60894;42.544;1.516;2023-02-28T08:40:06;1.25;53.73
72772;SHT30;60894;42.544;1.516;2023-02-28T08:42:35;1.31;53.47
72772;SHT30;60894;42.544;1.516;2023-02-28T08:45:02;1.35;53.04
72772;SHT30;60894;42.544;1.516;2023-02-28T08:47:29;1.52;52.52
72772;SHT30;60894;42.544;1.516;2023-02-28T08:49:56;1.73;50.66
72772;SHT30;60894;42.544;1.516;2023-02-28T08:52:23;1.90;50.30
72772;SHT30;60894;42.544;1.516;2023-02-28T08:54:50;2.07;49.44
72772;SHT30;60894;42.544;1.516;2023-02-28T08:57:16;2.11;48.91
72772;SHT30;60894;42.544;1.516;2023-02-28T08:59:45;2.27;49.03
72772;SHT30;60894;42.544;1.516;2023-02-28T09:02:13;2.35;48.43
72772;SHT30;60894;42.544;1.516;2023-02-28T09:04:40;2.53;47.68
72772;SHT30;60894;42.544;1.516;2023-02-28T09:07:07;2.68;47.46
72772;SHT30;60894;42.544;1.516;2023-02-28T09:09:34;2.81;46.90
72772;SHT30;60894;42.544;1.516;2023-02-28T09:12:01;2.78;46.10
72772;SHT30;60894;42.544;1.516;2023-02-28T09:14:28;2.93;46.74
72772;SHT30;60894;42.544;1.516;2023-02-28T09:16:56;3.06;45.04
72772;SHT30;60894;42.544;1.516;2023-02-28T09:19:24;3.23;44.02
72772;SHT30;60894;42.544;1.516;2023-02-28T09:21:51;3.34;44.45
72772;SHT30;60894;42.544;1.516;2023-02-28T09:24:18;3.38;45.32
72772;SHT30;60894;42.544;1.516;2023-02-28T09:26:46;3.54;44.83
72772;SHT30;60894;42.544;1.516;2023-02-28T09:29:13;3.70;43.43
72772;SHT30;60894;42.544;1.516;2023-02-28T09:31:41;3.81;42.90
72772;SHT30;60894;42.544;1.516;2023-02-28T09:34:09;4.02;42.56
72772;SHT30;60894;42.544;1.516;2023-02-28T09:36:36;4.15;43.41
72772;SHT30;60894;42.544;1.516;2023-02-28T09:39:03;4.12;43.49
72772;SHT30;60894;42.544;1.516;2023-02-28T09:41:37;4.20;42.98
72772;SHT30;60894;42.544;1.516;2023-02-28T09:44:17;4.26;42.37
72772;SHT30;60894;42.544;1.516;2023-02-28T09:46:49;4.54;41.79
72772;SHT30;60894;42.544;1.516;2023-02-28T09:49:23;4.65;42.17
72772;SHT30;60894;42.544;1.516;2023-02-28T09:51:55;4.65;41.70
72772;SHT30;60894;42.544;1.516;2023-02-28T09:54:26;4.71;41.69
72772;SHT30;60894;42.544;1.516;2023-02-28T09:56:58;4.91;41.55
72772;SHT30;60894;42.544;1.516;2023-02-28T09:59:39;4.96;40.70
72772;SHT30;60894;42.544;1.516;2023-02-28T10:02:25;5.12;40.76
72772;SHT30;60894;42.544;1.516;2023-02-28T10:05:05;5.25;40.12
72772;SHT30;60894;42.544;1.516;2023-02-28T10:07:45;5.12;40.02
72772;SHT30;60894;42.544;1.516;2023-02-28T10:10:20;5.43;40.12
72772;SHT30;60894;42.544;1.516;2023-02-28T10:12:49;5.55;39.21
72772;SHT30;60894;42.544;1.516;2023-02-28T10:15:21;5.66;39.33
72772;SHT30;60894;42.544;1.516;2023-02-28T10:17:53;5.73;39.42
72772;SHT30;60894;42.544;1.516;2023-02-28T10:20:23;5.86;39.03
72772;SHT30;60894;42.544;1.516;2023-02-28T10:22:58;6.03;39.98
72772;SHT30;60894;42.544;1.516;2023-02-28T10:25:32;5.89;38.37
72772;SHT30;60894;42.544;1.516;2023-02-28T10:28:05;5.86;38.48
72772;SHT30;60894;42.544;1.516;2023-02-28T10:30:35;6.04;38.63
72772;SHT30;60894;42.544;1.516;2023-02-28T10:33:01;5.94;38.29
72772;SHT30;60894;42.544;1.516;2023-02-28T10:35:30;6.20;37.95
72772;SHT30;60894;42.544;1.516;2023-02-28T10:38:00;6.29;37.49
72772;SHT30;60894;42.544;1.516;2023-02-28T10:40:35;6.41;37.40
72772;SHT30;60894;42.544;1.516;2023-02-28T10:43:03;6.55;37.23
72772;SHT30;60894;42.544;1.516;2023-02-28T10:45:32;6.66;37.37
72772;SHT30;60894;42.544;1.516;2023-02-28T10:48:01;6.79;37.29
72772;SHT30;60894;42.544;1.516;2023-02-28T10:50:35;7.11;36.57
72772;SHT30;60894;42.544;1.516;2023-02-28T10:56:04;7.77;35.45
72772;SHT30;60894;42.544;1.516;2023-02-28T10:58:45;7.72;34.79
72772;SHT30;60894;42.544;1.516;2023-02-28T11:01:14;7.98;35.90
72772;SHT30;60894;42.544;1.516;2023-02-28T11:03:42;8.37;34.73
72772;SHT30;60894;42.544;1.516;2023-02-28T11:06:15;8.36;33.80
72772;SHT30;60894;42.544;1.516;2023-02-28T11:08:46;8.70;33.96
72772;SHT30;60894;42.544;1.516;2023-02-28T11:11:13;8.88;33.41
72772;SHT30;60894;42.544;1.516;2023-02-28T11:13:44;8.60;33.82
72772;SHT30;60894;42.544;1.516;2023-02-28T11:16:13;8.77;33.61
72772;SHT30;60894;42.544;1.516;2023-02-28T11:18:42;8.95;32.80
72772;SHT30;60894;42.544;1.516;2023-02-28T11:21:18;8.82;32.89
72772;SHT30;60894;42.544;1.516;2023-02-28T11:23:47;8.84;32.92
72772;SHT30;60894;42.544;1.516;2023-02-28T11:26:16;8.87;32.94
72772;SHT30;60894;42.544;1.516;2023-02-28T11:29:11;9.38;32.93
72772;SHT30;60894;42.544;1.516;2023-02-28T11:31:38;9.39;31.85
72772;SHT30;60894;42.544;1.516;2023-02-28T11:34:23;9.50;32.12
72772;SHT30;60894;42.544;1.516;2023-02-28T11:36:51;9.87;31.87
72772;SHT30;60894;42.544;1.516;2023-02-28T11:39:19;10.22;31.05
72772;SHT30;60894;42.544;1.516;2023-02-28T11:41:58;10.31;30.51
72772;SHT30;60894;42.544;1.516;2023-02-28T11:44:42;10.55;30.51
72772;SHT30;60894;42.544;1.516;2023-02-28T11:47:14;10.66;30.07
72772;SHT30;60894;42.544;1.516;2023-02-28T11:49:51;10.83;29.19
72772;SHT30;60894;42.544;1.516;2023-02-28T11:52:36;9.83;30.24
72772;SHT30;60894;42.544;1.516;2023-02-28T11:55:24;10.52;30.22
72772;SHT30;60894;42.544;1.516;2023-02-28T11:58:00;10.40;29.28
72772;SHT30;60894;42.544;1.516;2023-02-28T12:00:42;10.22;29.42
72772;SHT30;60894;42.544;1.516;2023-02-28T12:03:25;10.27;30.63
72772;SHT30;60894;42.544;1.516;2023-02-28T12:06:01;10.48;29.33
72772;SHT30;60894;42.544;1.516;2023-02-28T12:08:47;11.23;28.87
72772;SHT30;60894;42.544;1.516;2023-02-28T12:11:24;11.09;27.78
72772;SHT30;60894;42.544;1.516;2023-02-28T12:14:03;11.20;28.12
72772;SHT30;60894;42.544;1.516;2023-02-28T12:16:44;11.37;27.00
72772;SHT30;60894;42.544;1.516;2023-02-28T12:19:19;11.45;26.85
72772;SHT30;60894;42.544;1.516;2023-02-28T12:22:01;11.99;26.37
72772;SHT30;60894;42.544;1.516;2023-02-28T12:24:47;12.39;26.50
72772;SHT30;60894;42.544;1.516;2023-02-28T12:27:19;12.14;25.82
72772;SHT30;60894;42.544;1.516;2023-02-28T12:29:49;12.55;26.00
72772;SHT30;60894;42.544;1.516;2023-02-28T12:32:23;12.28;25.73
72772;SHT30;60894;42.544;1.516;2023-02-28T12:34:52;12.30;25.60
72772;SHT30;60894;42.544;1.516;2023-02-28T12:37:23;12.63;25.21
72772;SHT30;60894;42.544;1.516;2023-02-28T12:39:54;13.18;25.07
72772;SHT30;60894;42.544;1.516;2023-02-28T12:42:27;13.21;24.37
72772;SHT30;60894;42.544;1.516;2023-02-28T12:44:59;13.04;24.89
72772;SHT30;60894;42.544;1.516;2023-02-28T12:47:26;13.38;24.35
72772;SHT30;60894;42.544;1.516;2023-02-28T12:49:55;13.24;24.49
72772;SHT30;60894;42.544;1.516;2023-02-28T12:52:29;13.85;27.65
72772;SHT30;60894;42.544;1.516;2023-02-28T12:55:03;13.80;27.39
72772;SHT30;60894;42.544;1.516;2023-02-28T12:57:36;13.86;26.49
72772;SHT30;60894;42.544;1.516;2023-02-28T13:00:11;13.63;25.97
72772;SHT30;60894;42.544;1.516;2023-02-28T13:02:58;13.63;25.51
72772;SHT30;60894;42.544;1.516;2023-02-28T13:05:50;14.10;24.47
72772;SHT30;60894;42.544;1.516;2023-02-28T13:08:57;13.83;24.42
72772;SHT30;60894;42.544;1.516;2023-02-28T13:11:29;13.76;26.17
72772;SHT30;60894;42.544;1.516;2023-02-28T13:13:58;14.05;26.23
72772;SHT30;60894;42.544;1.516;2023-02-28T13:16:25;13.07;23.68
72772;SHT30;60894;42.544;1.516;2023-02-28T13:19:08;13.55;25.08
72772;SHT30;60894;42.544;1.516;2023-02-28T13:21:42;13.61;24.66
72772;SHT30;60894;42.544;1.516;2023-02-28T13:24:10;14.05;23.99
72772;SHT30;60894;42.544;1.516;2023-02-28T13:27:19;14.64;26.02
72772;SHT30;60894;42.544;1.516;2023-02-28T13:29:50;15.19;23.25
72772;SHT30;60894;42.544;1.516;2023-02-28T13:32:42;14.55;22.72
72772;SHT30;60894;42.544;1.516;2023-02-28T13:38:24;14.21;25.96
72772;SHT30;60894;42.544;1.516;2023-02-28T13:44:02;12.02;25.23
72772;SHT30;60894;42.544;1.516;2023-02-28T13:46:30;11.35;32.91
72772;SHT30;60894;42.544;1.516;2023-02-28T13:49:18;11.30;26.88
72772;SHT30;60894;42.544;1.516;2023-02-28T13:51:47;10.62;27.18
72772;SHT30;60894;42.544;1.516;2023-02-28T13:54:23;10.58;27.01
72772;SHT30;60894;42.544;1.516;2023-02-28T13:57:03;10.38;27.82
72772;SHT30;60894;42.544;1.516;2023-02-28T13:59:38;10.17;27.86
72772;SHT30;60894;42.544;1.516;2023-02-28T14:02:32;10.14;28.57
72772;SHT30;60894;42.544;1.516;2023-02-28T14:05:05;9.97;28.95
72772;SHT30;60894;42.544;1.516;2023-02-28T14:07:41;9.56;29.01
72772;SHT30;60894;42.544;1.516;2023-02-28T14:10:22;9.40;29.38
72772;SHT30;60894;42.544;1.516;2023-02-28T14:13:01;9.28;29.15
72772;SHT30;60894;42.544;1.516;2023-02-28T14:15:38;9.31;29.40
72772;SHT30;60894;42.544;1.516;2023-02-28T14:18:16;9.00;29.84
72772;SHT30;60894;42.544;1.516;2023-02-28T14:20:45;8.91;30.04
72772;SHT30;60894;42.544;1.516;2023-02-28T14:23:22;8.67;30.35
72772;SHT30;60894;42.544;1.516;2023-02-28T14:26:00;8.74;30.66
72772;SHT30;60894;42.544;1.516;2023-02-28T14:28:46;8.70;30.92
72772;SHT30;60894;42.544;1.516;2023-02-28T14:31:18;8.65;31.19
72772;SHT30;60894;42.544;1.516;2023-02-28T14:34:01;8.65;30.84
72772;SHT30;60894;42.544;1.516;2023-02-28T14:36:33;8.46;30.96
72772;SHT30;60894;42.544;1.516;2023-02-28T14:39:05;8.32;31.22
72772;SHT30;60894;42.544;1.516;2023-02-28T14:41:35;8.39;31.33
72772;SHT30;60894;42.544;1.516;2023-02-28T14:44:14;8.51;31.26
72772;SHT30;60894;42.544;1.516;2023-02-28T14:46:44;8.46;31.04
72772;SHT30;60894;42.544;1.516;2023-02-28T14:49:16;8.23;31.44
72772;SHT30;60894;42.544;1.516;2023-02-28T14:51:44;8.25;31.64
72772;SHT30;60894;42.544;1.516;2023-02-28T14:54:14;8.44;32.26
72772;SHT30;60894;42.544;1.516;2023-02-28T14:56:42;8.43;32.05
72772;SHT30;60894;42.544;1.516;2023-02-28T14:59:25;8.65;31.95
72772;SHT30;60894;42.544;1.516;2023-02-28T15:02:13;8.70;31.54
72772;SHT30;60894;42.544;1.516;2023-02-28T15:04:40;8.67;32.05
72772;SHT30;60894;42.544;1.516;2023-02-28T15:07:09;8.72;31.94
72772;SHT30;60894;42.544;1.516;2023-02-28T15:09:36;8.80;31.70
72772;SHT30;60894;42.544;1.516;2023-02-28T15:12:03;8.89;31.88
72772;SHT30;60894;42.544;1.516;2023-02-28T15:14:31;8.89;31.64
72772;SHT30;60894;42.544;1.516;2023-02-28T15:17:01;8.88;31.45
72772;SHT30;60894;42.544;1.516;2023-02-28T15:19:30;8.72;31.58
72772;SHT30;60894;42.544;1.516;2023-02-28T15:22:00;8.54;31.98
72772;SHT30;60894;42.544;1.516;2023-02-28T15:24:35;8.71;32.53
72772;SHT30;60894;42.544;1.516;2023-02-28T15:27:05;9.22;31.25
72772;SHT30;60894;42.544;1.516;2023-02-28T15:29:41;10.37;29.62
72772;SHT30;60894;42.544;1.516;2023-02-28T15:32:23;10.89;28.58
72772;SHT30;60894;42.544;1.516;2023-02-28T15:34:50;11.09;27.91
72772;SHT30;60894;42.544;1.516;2023-02-28T15:37:29;11.41;27.58
72772;SHT30;60894;42.544;1.516;2023-02-28T15:39:57;11.04;28.23
72772;SHT30;60894;42.544;1.516;2023-02-28T15:42:28;10.65;28.30
72772;SHT30;60894;42.544;1.516;2023-02-28T15:44:56;10.63;28.63
72772;SHT30;60894;42.544;1.516;2023-02-28T15:47:28;10.25;28.81
72772;SHT30;60894;42.544;1.516;2023-02-28T15:49:58;9.98;29.63
72772;SHT30;60894;42.544;1.516;2023-02-28T15:52:29;9.83;29.80
72772;SHT30;60894;42.544;1.516;2023-02-28T15:54:59;9.54;30.37
72772;SHT30;60894;42.544;1.516;2023-02-28T15:57:34;9.59;30.47
72772;SHT30;60894;42.544;1.516;2023-02-28T16:00:02;9.38;30.33
72772;SHT30;60894;42.544;1.516;2023-02-28T16:02:34;9.38;31.05
72772;SHT30;60894;42.544;1.516;2023-02-28T16:05:21;9.11;30.82
72772;SHT30;60894;42.544;1.516;2023-02-28T16:07:53;8.98;31.38
72772;SHT30;60894;42.544;1.516;2023-02-28T16:10:21;9.02;31.03
72772;SHT30;60894;42.544;1.516;2023-02-28T16:12:52;8.74;31.46
72772;SHT30;60894;42.544;1.516;2023-02-28T16:15:22;8.80;31.72
72772;SHT30;60894;42.544;1.516;2023-02-28T16:17:51;9.04;31.11
72772;SHT30;60894;42.544;1.516;2023-02-28T16:20:20;8.84;31.16
72772;SHT30;60894;42.544;1.516;2023-02-28T16:22:48;8.68;31.59